Time;durP1;ratioP1;P1;durP2;ratioP2;P2;SDS_P1;SDS_P2;PMS_P1;PMS_P2;Temp;Humidity;BMP_temperature;BMP_pressure;BME280_temperature;BME280_humidity;BME280_pressure;Samples;Min_cycle;Max_cycle;Signal;HPM_P1;HPM_P2
2022/05/29 00:01:09;;;;;;;3.42;0.85;;;18.20;51.20;;;;;;5072640;28;20028;-69
2022/05/29 00:03:35;;;;;;;2.85;0.90;;;18.20;51.20;;;;;;5072553;28;20497;-67
2022/05/29 00:06:02;;;;;;;4.22;1.00;;;18.20;51.60;;;;;;5072035;28;20442;-68
2022/05/29 00:08:31;;;;;;;4.25;0.75;;;18.20;51.70;;;;;;5072719;28;20046;-67
2022/05/29 00:10:58;;;;;;;2.28;0.80;;;18.10;51.60;;;;;;5073036;28;20369;-69
2022/05/29 00:13:24;;;;;;;15.70;2.28;;;18.20;51.30;;;;;;5072654;28;20023;-69
2022/05/29 00:15:50;;;;;;;4.07;0.82;;;18.20;51.10;;;;;;5072735;28;20473;-67
2022/05/29 00:18:16;;;;;;;2.10;0.70;;;18.10;51.20;;;;;;5076614;28;20021;-67
2022/05/29 00:20:46;;;;;;;4.07;1.00;;;18.20;51.50;;;;;;5076246;28;20025;-68
2022/05/29 00:23:11;;;;;;;3.90;0.77;;;18.20;51.60;;;;;;5076168;28;20029;-70
2022/05/29 00:25:37;;;;;;;1.95;0.70;;;18.20;51.50;;;;;;5076279;28;20427;-69
2022/05/29 00:28:03;;;;;;;3.00;0.75;;;18.10;51.60;;;;;;5076141;28;20098;-70
2022/05/29 00:30:29;;;;;;;2.25;0.88;;;18.10;51.60;;;;;;5076323;28;20029;-69
2022/05/29 00:32:55;;;;;;;3.20;0.63;;;18.10;51.70;;;;;;5076117;28;20493;-69
2022/05/29 00:35:20;;;;;;;3.33;0.82;;;18.10;52.10;;;;;;5076307;28;20071;-70
2022/05/29 00:37:47;;;;;;;1.95;0.77;;;18.10;52.40;;;;;;5076077;28;20058;-67
2022/05/29 04:44:52;;;;;;;2.55;0.60;;;17.20;55.00;;;;;;5068029;28;20039;-67
2022/05/29 04:47:18;;;;;;;5.35;0.70;;;17.20;54.30;;;;;;5072275;28;20385;-68
2022/05/29 04:49:45;;;;;;;3.95;0.65;;;17.20;54.00;;;;;;5072342;28;20028;-67
2022/05/29 04:52:10;;;;;;;2.70;0.70;;;17.20;53.90;;;;;;5072170;28;20036;-67
2022/05/29 04:54:40;;;;;;;6.13;0.70;;;17.20;53.50;;;;;;5071983;28;20028;-67
2022/05/29 04:57:07;;;;;;;2.38;0.65;;;17.30;54.20;;;;;;5072254;28;20040;-68
2022/05/29 04:59:34;;;;;;;1.17;0.82;;;17.30;54.00;;;;;;5071999;28;20036;-68
2022/05/29 05:02:01;;;;;;;2.85;0.57;;;17.30;53.70;;;;;;5072675;28;20075;-68
2022/05/29 05:04:27;;;;;;;1.83;0.90;;;17.30;54.20;;;;;;5075720;28;20075;-67
2022/05/29 05:06:59;;;;;;;0.95;0.55;;;17.30;54.30;;;;;;5075363;28;20370;-68
2022/05/29 05:09:27;;;;;;;1.88;0.60;;;17.30;55.40;;;;;;5075424;28;20107;-67
2022/05/29 05:11:53;;;;;;;1.42;0.60;;;17.30;55.30;;;;;;5075498;28;20103;-67
2022/05/29 05:14:20;;;;;;;4.05;0.60;;;17.30;55.50;;;;;;5075111;28;20029;-67
2022/05/29 05:16:46;;;;;;;0.98;0.50;;;17.30;55.40;;;;;;5075653;28;20091;-68
2022/05/29 05:19:13;;;;;;;3.88;0.63;;;17.30;55.20;;;;;;5075317;28;20403;-68
2022/05/29 05:21:39;;;;;;;1.50;0.50;;;17.30;55.10;;;;;;5075368;28;20021;-68
2022/05/29 05:24:05;;;;;;;2.75;0.70;;;17.30;55.10;;;;;;5075147;28;20370;-68
2022/05/29 05:26:31;;;;;;;3.25;1.20;;;17.30;55.10;;;;;;5075165;28;20035;-67
2022/05/29 05:28:57;;;;;;;2.20;0.60;;;17.30;55.20;;;;;;5075204;28;20388;-67
2022/05/29 05:31:24;;;;;;;2.80;0.50;;;17.30;55.50;;;;;;5075120;28;20079;-68
2022/05/29 05:33:50;;;;;;;2.15;0.70;;;17.30;55.80;;;;;;5075193;28;20071;-70
2022/05/29 05:36:16;;;;;;;1.80;0.60;;;17.30;56.40;;;;;;5075029;28;20028;-69
2022/05/29 05:38:42;;;;;;;2.88;0.60;;;17.30;56.60;;;;;;5074928;28;20034;-69
2022/05/29 05:41:13;;;;;;;2.38;0.68;;;17.30;56.30;;;;;;5074954;28;20104;-68
2022/05/29 05:43:40;;;;;;;3.67;0.55;;;17.30;56.20;;;;;;5075035;28;20520;-68
2022/05/29 05:46:07;;;;;;;2.92;0.60;;;17.30;56.20;;;;;;5074773;28;20139;-70
2022/05/29 05:48:33;;;;;;;1.00;0.70;;;17.30;56.70;;;;;;5074959;28;20037;-68
2022/05/29 05:51:00;;;;;;;2.00;0.90;;;17.40;57.50;;;;;;5074592;28;20051;-69
2022/05/29 05:53:26;;;;;;;2.15;0.70;;;17.40;57.40;;;;;;5074574;28;20040;-69
2022/05/29 05:55:53;;;;;;;3.42;0.60;;;17.40;55.60;;;;;;5074674;28;20052;-66
2022/05/29 05:58:19;;;;;;;3.03;0.60;;;17.40;54.30;;;;;;5074601;28;20051;-69
2022/05/29 06:00:46;;;;;;;1.67;0.50;;;17.50;53.70;;;;;;5074510;28;20094;-68
2022/05/29 06:03:12;;;;;;;1.17;0.40;;;17.50;53.60;;;;;;5074275;28;20047;-67
2022/05/29 06:05:38;;;;;;;2.78;0.40;;;17.50;53.60;;;;;;5074401;28;20401;-67
2022/05/29 06:08:05;;;;;;;4.57;0.60;;;17.50;53.10;;;;;;5074613;28;20037;-67
2022/05/29 06:10:31;;;;;;;2.10;0.65;;;17.50;53.10;;;;;;5074273;28;20052;-68
2022/05/29 06:13:05;;;;;;;1.77;0.70;;;17.60;53.80;;;;;;5073157;28;20710;-68
2022/05/29 06:15:31;;;;;;;2.08;0.60;;;17.50;54.00;;;;;;5071428;28;20045;-68
2022/05/29 06:17:57;;;;;;;2.40;0.65;;;17.50;54.40;;;;;;5071350;28;20039;-69
2022/05/29 06:20:24;;;;;;;1.70;0.57;;;17.50;54.50;;;;;;5072829;28;20036;-69
2022/05/29 06:22:50;;;;;;;2.13;0.60;;;17.50;54.60;;;;;;5073805;28;20047;-68
2022/05/29 06:25:16;;;;;;;4.43;0.93;;;17.50;54.80;;;;;;5074015;28;20059;-69
2022/05/29 06:27:45;;;;;;;2.05;0.68;;;17.50;55.10;;;;;;5073561;28;20079;-69
2022/05/29 06:30:16;;;;;;;4.10;0.65;;;17.50;55.90;;;;;;5073350;28;20507;-68
2022/05/29 06:32:42;;;;;;;2.03;0.80;;;17.50;55.80;;;;;;5073459;28;20037;-68
2022/05/29 06:35:12;;;;;;;1.02;0.55;;;17.50;55.80;;;;;;5072692;28;20167;-69
2022/05/29 06:37:38;;;;;;;6.05;0.50;;;17.40;56.30;;;;;;5071130;28;20075;-69
2022/05/29 06:40:05;;;;;;;2.80;0.95;;;17.50;57.10;;;;;;5071070;28;20043;-68
2022/05/29 06:42:31;;;;;;;6.72;0.77;;;17.50;57.80;;;;;;5073220;28;20047;-68
2022/05/29 06:44:58;;;;;;;4.60;0.73;;;17.50;58.20;;;;;;5073376;28;20048;-68
2022/05/29 06:47:25;;;;;;;2.03;0.73;;;17.50;57.90;;;;;;5073604;28;20036;-69
2022/05/29 06:49:51;;;;;;;1.75;0.60;;;17.50;58.10;;;;;;5073420;28;20389;-69
2022/05/29 06:52:18;;;;;;;2.30;0.63;;;17.50;58.00;;;;;;5073418;28;20040;-68
2022/05/29 06:54:44;;;;;;;6.22;1.10;;;17.50;57.70;;;;;;5073147;28;20115;-68
2022/05/29 06:57:12;;;;;;;1.92;0.43;;;17.50;58.10;;;;;;5072718;28;20079;-68
2022/05/29 07:07:59;;;;;;;2.72;0.60;;;17.60;56.20;;;;;;5069537;28;20094;-69
2022/05/29 07:10:29;;;;;;;2.95;0.85;;;17.60;56.30;;;;;;5071821;28;20500;-67
2022/05/29 07:12:56;;;;;;;2.03;0.73;;;17.60;56.60;;;;;;5072452;28;20028;-68
2022/05/29 07:15:22;;;;;;;2.63;0.47;;;17.70;56.60;;;;;;5072657;28;20473;-68
2022/05/29 07:17:49;;;;;;;3.45;0.50;;;17.70;56.40;;;;;;5072277;28;20040;-68
2022/05/29 07:20:16;;;;;;;1.00;0.52;;;17.70;56.40;;;;;;5072648;28;20397;-67
2022/05/29 07:22:43;;;;;;;5.60;0.55;;;17.70;56.40;;;;;;5072990;28;20048;-69
2022/05/29 07:25:11;;;;;;;2.45;0.38;;;17.80;56.00;;;;;;5070832;28;20388;-68
2022/05/29 07:27:38;;;;;;;4.18;0.70;;;17.80;56.00;;;;;;5072398;28;20036;-70
2022/05/29 07:30:05;;;;;;;5.72;0.70;;;17.90;56.10;;;;;;5072109;28;20039;-68
2022/05/29 07:32:31;;;;;;;5.38;0.52;;;17.90;55.70;;;;;;5072075;28;20178;-68
2022/05/29 07:34:58;;;;;;;1.13;0.47;;;18.00;56.00;;;;;;5072334;28;20480;-69
2022/05/29 07:37:26;;;;;;;5.28;0.50;;;18.10;54.80;;;;;;5071918;28;20047;-69
2022/05/29 07:39:53;;;;;;;4.22;0.60;;;18.10;54.70;;;;;;5071661;28;20393;-69
2022/05/29 07:45:06;;;;;;;4.28;0.60;;;18.30;54.40;;;;;;5071720;28;20170;-68
2022/05/29 07:47:38;;;;;;;2.58;0.75;;;18.30;54.10;;;;;;5071768;28;20512;-69
2022/05/29 07:50:05;;;;;;;1.17;0.47;;;18.30;54.20;;;;;;5072637;28;20025;-69
2022/05/29 07:52:31;;;;;;;2.80;0.70;;;18.30;54.30;;;;;;5077115;28;20040;-69
2022/05/29 07:54:56;;;;;;;1.30;0.50;;;18.40;53.50;;;;;;5071686;28;20028;-69
2022/05/29 07:57:22;;;;;;;2.97;0.50;;;18.40;53.80;;;;;;5072605;28;20107;-68
2022/05/29 07:59:48;;;;;;;7.75;0.80;;;18.40;54.00;;;;;;5072740;28;20039;-69
2022/05/29 08:02:14;;;;;;;1.98;0.65;;;18.50;54.10;;;;;;5072233;28;20082;-69
2022/05/29 08:04:42;;;;;;;1.55;0.60;;;18.50;53.60;;;;;;5071371;28;20048;-68
2022/05/29 08:07:09;;;;;;;2.58;0.63;;;18.50;52.80;;;;;;5071180;28;20393;-69
2022/05/29 08:09:34;;;;;;;1.85;0.57;;;18.50;53.60;;;;;;5071278;28;20036;-69
2022/05/29 08:12:00;;;;;;;2.92;0.65;;;18.50;53.40;;;;;;5071247;28;20025;-68
2022/05/29 08:14:27;;;;;;;1.30;0.70;;;18.50;53.50;;;;;;5087687;28;20036;-68
2022/05/29 08:16:52;;;;;;;3.72;0.60;;;18.50;53.60;;;;;;5091991;28;20081;-69
2022/05/29 08:19:18;;;;;;;1.95;0.60;;;18.60;53.20;;;;;;5092150;28;20040;-68
2022/05/29 08:21:44;;;;;;;3.08;0.50;;;18.60;53.80;;;;;;5087967;28;20028;-69
2022/05/29 08:32:22;;;;;;;3.78;0.63;;;18.60;53.00;;;;;;5072036;28;20047;-69
2022/05/29 08:34:47;;;;;;;3.00;0.60;;;18.50;53.30;;;;;;5072289;28;20528;-68
2022/05/29 08:37:13;;;;;;;0.75;0.32;;;18.50;53.50;;;;;;5072737;28;20067;-68
2022/05/29 08:39:39;;;;;;;2.45;0.52;;;18.60;53.80;;;;;;5075211;28;20060;-69
2022/05/29 08:42:05;;;;;;;1.15;0.32;;;18.60;53.10;;;;;;5075199;28;20477;-68
2022/05/29 08:44:49;;;;;;;0.90;0.40;;;18.60;53.50;;;;;;5075839;28;20501;-68
2022/05/29 08:47:19;;;;;;;0.82;0.38;;;18.60;53.00;;;;;;5075729;28;20024;-68
2022/05/29 08:49:47;;;;;;;0.60;0.30;;;18.80;53.80;;;;;;5075969;28;20536;-68
2022/05/29 08:52:31;;;;;;;1.13;0.50;;;18.80;52.90;;;;;;5076066;28;20032;-68
2022/05/29 08:55:08;;;;;;;3.17;0.40;;;18.90;51.70;;;;;;5073394;28;20412;-69
2022/05/29 08:57:54;;;;;;;1.38;0.40;;;19.00;52.70;;;;;;5073182;28;20377;-68
2022/05/29 09:00:49;;;;;;;1.92;0.50;;;19.10;52.90;;;;;;5074843;28;20036;-68
2022/05/29 09:03:36;;;;;;;0.77;0.38;;;19.10;53.40;;;;;;5075992;28;20561;-68
2022/05/29 09:06:11;;;;;;;1.10;0.30;;;19.10;52.70;;;;;;5075864;28;20119;-68
2022/05/29 09:08:50;;;;;;;3.85;0.40;;;19.20;51.60;;;;;;5075493;28;20036;-68
2022/05/29 09:11:38;;;;;;;1.08;0.50;;;19.30;51.60;;;;;;5075739;28;20035;-68
2022/05/29 09:14:23;;;;;;;1.55;0.30;;;19.30;51.00;;;;;;5075747;28;20032;-68
2022/05/29 09:17:02;;;;;;;0.63;0.28;;;19.30;50.70;;;;;;5075302;28;20028;-68
2022/05/29 09:19:51;;;;;;;0.98;0.40;;;19.30;51.40;;;;;;5075481;28;20039;-68
2022/05/29 09:22:27;;;;;;;3.88;0.68;;;19.40;52.10;;;;;;5075654;28;20485;-68
2022/05/29 09:25:08;;;;;;;3.30;0.50;;;19.40;52.20;;;;;;5075285;28;20021;-68
2022/05/29 09:27:36;;;;;;;1.35;0.57;;;19.50;52.00;;;;;;5075109;28;20028;-68
2022/05/29 09:30:05;;;;;;;1.10;0.35;;;19.50;52.20;;;;;;5075069;28;20032;-69
2022/05/29 09:32:33;;;;;;;1.25;0.35;;;19.50;50.30;;;;;;5075318;28;20493;-68
2022/05/29 09:35:23;;;;;;;1.20;0.30;;;19.60;50.10;;;;;;5075258;28;20035;-68
2022/05/29 09:38:06;;;;;;;0.60;0.25;;;19.70;49.90;;;;;;5074923;28;20374;-68
2022/05/29 09:40:55;;;;;;;1.50;0.50;;;19.70;51.00;;;;;;5075287;28;20524;-68
2022/05/29 09:43:24;;;;;;;0.35;0.25;;;19.70;50.80;;;;;;5075287;28;20040;-68
2022/05/29 09:45:50;;;;;;;0.73;0.30;;;19.70;50.30;;;;;;5075024;28;20048;-68
2022/05/29 09:51:24;;;;;;;0.40;0.40;;;19.80;50.90;;;;;;5075236;28;20046;-68
2022/05/29 09:53:57;;;;;;;1.63;0.40;;;19.80;50.90;;;;;;5074932;28;20032;-69
2022/05/29 09:56:34;;;;;;;2.47;0.50;;;19.80;51.70;;;;;;5074833;28;20547;-68
2022/05/29 09:59:16;;;;;;;2.90;0.50;;;19.90;50.40;;;;;;5074966;28;20111;-68
2022/05/29 10:01:46;;;;;;;0.60;0.30;;;20.00;50.10;;;;;;5074958;28;20029;-68
2022/05/29 10:04:42;;;;;;;1.08;0.40;;;20.00;49.70;;;;;;5074534;28;20127;-68
2022/05/29 10:07:15;;;;;;;1.45;0.40;;;20.00;51.00;;;;;;5061833;28;20048;-68
2022/05/29 10:10:26;;;;;;;0.73;0.40;;;20.00;50.20;;;;;;5074558;28;20033;-69
2022/05/29 10:12:55;;;;;;;14.35;1.77;;;20.00;49.50;;;;;;5046411;28;20036;-68
2022/05/29 10:15:27;;;;;;;1.75;0.50;;;20.00;49.90;;;;;;5074416;28;20440;-68
2022/05/29 10:18:01;;;;;;;0.45;0.20;;;20.10;50.30;;;;;;5074597;28;20036;-68
2022/05/29 10:20:44;;;;;;;2.83;0.60;;;20.20;50.00;;;;;;5074379;28;20077;-68
2022/05/29 10:23:27;;;;;;;0.30;0.22;;;20.30;51.00;;;;;;5074415;28;20500;-68
2022/05/29 10:25:56;;;;;;;2.28;0.50;;;20.40;49.80;;;;;;5074365;28;20117;-68
2022/05/29 10:28:26;;;;;;;0.52;0.40;;;20.50;49.40;;;;;;5074365;28;20389;-68
2022/05/29 10:30:59;;;;;;;0.60;0.40;;;20.60;49.40;;;;;;5074427;28;20082;-69
2022/05/29 10:33:31;;;;;;;0.40;0.40;;;20.70;49.90;;;;;;5074231;28;20037;-68
2022/05/29 10:36:10;;;;;;;1.13;0.50;;;20.80;50.20;;;;;;5073987;28;20052;-68
2022/05/29 10:38:36;;;;;;;1.00;0.50;;;20.90;49.10;;;;;;5074113;28;20063;-68
2022/05/29 10:41:04;;;;;;;2.38;0.50;;;20.90;48.80;;;;;;5074081;28;20078;-69
2022/05/29 10:43:51;;;;;;;1.60;0.32;;;20.90;48.60;;;;;;5073949;28;20044;-68
2022/05/29 10:46:21;;;;;;;3.10;0.70;;;21.00;48.60;;;;;;5074246;28;20412;-68
2022/05/29 10:49:07;;;;;;;6.93;0.50;;;21.00;50.00;;;;;;5073999;28;20029;-68
2022/05/29 10:51:54;;;;;;;2.38;0.40;;;21.00;50.70;;;;;;5074109;28;20033;-68
2022/05/29 10:54:32;;;;;;;0.55;0.40;;;21.20;49.30;;;;;;5074184;28;20033;-68
2022/05/29 10:57:09;;;;;;;0.20;0.20;;;21.40;49.30;;;;;;5073982;28;20119;-68
2022/05/29 11:00:17;;;;;;;0.55;0.30;;;21.50;48.70;;;;;;5069995;28;20068;-68
2022/05/29 11:03:21;;;;;;;0.93;0.30;;;21.60;47.50;;;;;;5062824;28;20052;-68
2022/05/29 11:06:01;;;;;;;4.10;0.50;;;21.60;48.60;;;;;;5073890;28;20037;-68
2022/05/29 11:08:46;;;;;;;2.40;0.30;;;21.70;47.70;;;;;;5073797;28;20033;-68
2022/05/29 11:11:50;;;;;;;0.80;0.40;;;21.80;47.90;;;;;;5073368;28;20052;-68
2022/05/29 11:14:39;;;;;;;2.75;0.40;;;21.80;47.80;;;;;;5073707;28;20036;-68
2022/05/29 11:17:20;;;;;;;0.93;0.30;;;21.80;47.30;;;;;;5073605;28;20436;-68
2022/05/29 11:20:31;;;;;;;0.75;0.50;;;21.60;47.50;;;;;;5073335;28;20063;-68
2022/05/29 11:23:33;;;;;;;2.08;0.50;;;21.40;48.00;;;;;;5048796;28;20056;-68
2022/05/29 11:26:22;;;;;;;0.98;0.47;;;21.30;48.40;;;;;;5070522;28;20032;-68
2022/05/29 11:28:51;;;;;;;3.00;0.60;;;21.10;48.30;;;;;;5070228;28;20555;-68
2022/05/29 11:31:40;;;;;;;0.55;0.35;;;21.10;48.30;;;;;;5072933;28;20029;-68
2022/05/29 11:34:30;;;;;;;2.28;0.50;;;21.10;48.70;;;;;;5073420;28;20086;-68
2022/05/29 11:37:29;;;;;;;3.85;0.80;;;21.10;49.00;;;;;;5073420;28;20044;-67
2022/05/29 11:40:11;;;;;;;3.75;0.45;;;21.00;48.90;;;;;;5072683;28;20024;-68
2022/05/29 11:43:03;;;;;;;1.98;0.60;;;21.00;49.40;;;;;;5073037;28;20040;-68
2022/05/29 11:51:31;;;;;;;1.95;0.60;;;21.00;50.70;;;;;;5071212;28;20447;-68
2022/05/29 11:54:11;;;;;;;0.88;0.60;;;21.00;50.40;;;;;;5069984;28;20033;-69
2022/05/29 11:56:47;;;;;;;3.47;0.80;;;21.00;50.20;;;;;;5071041;28;20032;-68
2022/05/29 11:59:47;;;;;;;4.15;0.60;;;20.90;50.70;;;;;;5071872;28;20474;-68
2022/05/29 12:02:31;;;;;;;2.85;1.50;;;20.90;50.70;;;;;;5072328;28;20033;-69
2022/05/29 12:05:14;;;;;;;1.85;0.77;;;20.90;50.60;;;;;;5071108;28;20032;-69
2022/05/29 12:08:16;;;;;;;1.15;0.80;;;20.90;50.30;;;;;;5070226;28;20025;-69
2022/05/29 12:11:31;;;;;;;1.45;0.73;;;20.80;50.10;;;;;;5067496;28;20087;-69
2022/05/29 12:14:07;;;;;;;1.20;0.70;;;20.80;50.40;;;;;;5000640;28;20132;-68
2022/05/29 12:16:36;;;;;;;1.42;0.65;;;20.70;50.30;;;;;;5075634;28;20563;-69
2022/05/29 12:19:09;;;;;;;2.63;0.80;;;20.60;51.00;;;;;;5075750;28;20540;-68
2022/05/29 12:21:41;;;;;;;1.10;0.80;;;20.50;51.30;;;;;;5075604;28;20040;-68
2022/05/29 12:24:11;;;;;;;1.67;0.90;;;20.50;51.70;;;;;;5076331;28;20056;-69
2022/05/29 12:26:43;;;;;;;1.48;0.77;;;20.40;51.90;;;;;;5076276;28;20029;-69
2022/05/29 12:29:16;;;;;;;0.88;0.60;;;20.40;52.50;;;;;;5076094;28;20049;-68
2022/05/29 12:31:46;;;;;;;1.85;0.90;;;20.40;52.10;;;;;;5076176;28;20033;-69
2022/05/29 12:34:23;;;;;;;1.48;0.60;;;20.50;52.00;;;;;;5076114;28;20044;-68
2022/05/29 12:37:09;;;;;;;1.67;0.82;;;20.50;52.30;;;;;;5076341;28;20510;-67
2022/05/29 12:40:02;;;;;;;2.42;0.73;;;20.60;52.00;;;;;;5076270;28;20033;-67
2022/05/29 12:42:40;;;;;;;1.50;0.70;;;20.70;51.90;;;;;;5076023;28;20044;-66
2022/05/29 12:45:33;;;;;;;0.85;0.68;;;20.80;51.70;;;;;;5076032;28;20075;-67
2022/05/29 12:48:15;;;;;;;1.95;0.80;;;20.80;51.60;;;;;;5076227;28;20389;-67
2022/05/29 12:51:11;;;;;;;1.15;0.70;;;20.90;51.60;;;;;;5076030;28;20033;-67
2022/05/29 12:54:18;;;;;;;5.78;1.05;;;20.90;50.50;;;;;;5075725;28;20043;-67
2022/05/29 12:57:13;;;;;;;0.98;0.60;;;20.90;50.30;;;;;;5013756;28;20029;-67
2022/05/29 13:00:14;;;;;;;1.58;0.52;;;20.80;50.90;;;;;;5075829;28;20028;-68
2022/05/29 13:03:04;;;;;;;1.65;0.90;;;20.70;50.40;;;;;;5075538;28;20052;-67
2022/05/29 13:05:52;;;;;;;1.90;0.50;;;20.60;50.40;;;;;;5074042;28;20036;-68
2022/05/29 13:08:27;;;;;;;0.45;0.40;;;20.50;50.80;;;;;;5075259;28;20485;-67
2022/05/29 13:10:53;;;;;;;2.90;0.40;;;20.50;50.60;;;;;;5076010;28;20358;-67
2022/05/29 13:13:23;;;;;;;2.20;0.50;;;20.40;51.10;;;;;;5075883;28;20489;-67
2022/05/29 13:15:50;;;;;;;1.23;0.50;;;20.30;51.10;;;;;;5075222;28;20032;-67
2022/05/29 13:21:16;;;;;;;1.85;0.57;;;20.10;51.20;;;;;;5075445;28;20036;-67
2022/05/29 13:23:48;;;;;;;1.33;0.50;;;19.90;51.60;;;;;;5074307;28;20040;-67
2022/05/29 13:26:16;;;;;;;2.10;0.28;;;19.90;51.90;;;;;;5075253;28;20035;-68
2022/05/29 13:28:43;;;;;;;0.32;0.32;;;19.80;51.30;;;;;;5075242;28;20033;-69
2022/05/29 13:31:14;;;;;;;0.63;0.30;;;19.70;51.80;;;;;;5075057;28;20044;-68
2022/05/29 13:33:45;;;;;;;2.35;0.15;;;19.60;51.70;;;;;;5075346;28;20029;-67
2022/05/29 13:36:48;;;;;;;0.35;0.25;;;19.60;52.20;;;;;;5075389;28;20035;-68
2022/05/29 13:39:35;;;;;;;3.45;0.30;;;19.60;52.30;;;;;;5071386;28;20112;-68
2022/05/29 13:42:10;;;;;;;1.30;0.10;;;19.50;52.80;;;;;;5075357;28;20477;-68
2022/05/29 18:19:46;;;;;;;5.90;0.30;;;17.20;56.30;;;;;;5067908;28;20060;-69
2022/05/29 18:22:12;;;;;;;0.22;0.20;;;17.20;56.70;;;;;;5074013;28;20089;-69
2022/05/29 18:24:38;;;;;;;2.92;0.30;;;17.10;56.90;;;;;;5073925;28;20037;-68
2022/05/29 18:27:08;;;;;;;0.38;0.22;;;17.10;56.80;;;;;;5073865;28;20036;-68
2022/05/29 18:29:35;;;;;;;1.05;0.30;;;17.10;56.90;;;;;;5070890;28;20392;-68
2022/05/29 18:32:01;;;;;;;1.85;0.10;;;17.00;56.90;;;;;;5071273;28;20385;-68
2022/05/29 18:34:27;;;;;;;0.40;0.20;;;17.00;56.70;;;;;;5073100;28;20041;-68
2022/05/29 18:36:52;;;;;;;0.30;0.13;;;17.00;56.70;;;;;;5074207;28;20040;-68
2022/05/29 18:39:18;;;;;;;1.65;0.30;;;17.00;56.50;;;;;;5074377;28;20040;-69
2022/05/29 18:41:45;;;;;;;1.65;0.10;;;17.00;56.10;;;;;;5073947;28;20028;-68
2022/05/29 18:44:11;;;;;;;0.95;0.10;;;17.00;56.10;;;;;;5073981;28;20456;-68
2022/05/29 18:46:36;;;;;;;1.08;0.10;;;17.00;55.70;;;;;;5072157;28;20029;-67
2022/05/29 18:49:04;;;;;;;0.47;0.10;;;16.90;55.80;;;;;;5072790;28;20504;-70
2022/05/29 18:51:30;;;;;;;0.38;0.13;;;16.90;55.40;;;;;;5073222;28;20489;-69
2022/05/29 18:53:56;;;;;;;0.10;0.10;;;16.90;55.50;;;;;;5072759;28;20045;-68
2022/05/29 18:56:24;;;;;;;1.35;0.20;;;16.90;55.80;;;;;;5073086;28;20095;-70
2022/05/29 18:58:50;;;;;;;0.47;0.20;;;16.80;55.90;;;;;;5071215;28;20040;-70
2022/05/29 19:01:19;;;;;;;1.02;0.10;;;16.70;56.10;;;;;;5070570;28;20041;-68
2022/05/29 19:03:44;;;;;;;0.38;0.10;;;16.70;56.20;;;;;;5070556;28;20095;-68
2022/05/29 19:06:18;;;;;;;0.55;0.10;;;16.60;56.30;;;;;;5072858;28;20036;-69
2022/05/29 19:08:45;;;;;;;0.22;0.10;;;16.60;56.80;;;;;;5072767;28;20033;-68
2022/05/29 19:11:13;;;;;;;0.10;0.10;;;16.50;57.30;;;;;;5071464;28;20093;-68
2022/05/29 19:13:44;;;;;;;2.42;0.10;;;16.60;57.10;;;;;;5072604;28;20029;-68
2022/05/29 19:16:31;;;;;;;2.60;0.25;;;16.60;57.10;;;;;;5072204;28;20045;-68
2022/05/29 19:18:58;;;;;;;0.20;0.10;;;16.50;57.10;;;;;;5052662;28;20051;-68
2022/05/29 19:21:24;;;;;;;0.90;0.10;;;16.50;57.40;;;;;;5052268;28;20045;-68
2022/05/29 19:23:51;;;;;;;1.10;0.30;;;16.50;58.00;;;;;;5059259;28;20105;-69
2022/05/29 19:26:20;;;;;;;0.70;0.30;;;16.50;58.10;;;;;;5071066;28;20095;-69
2022/05/29 19:28:52;;;;;;;0.47;0.13;;;16.50;58.40;;;;;;5072239;28;20230;-69
2022/05/29 19:31:35;;;;;;;0.63;0.10;;;16.50;58.30;;;;;;5072630;28;20036;-69
2022/05/29 19:34:01;;;;;;;0.20;0.10;;;16.50;57.80;;;;;;5072031;28;20029;-69
2022/05/29 19:36:29;;;;;;;0.85;0.20;;;16.50;57.60;;;;;;5072356;28;20036;-69
2022/05/29 19:38:56;;;;;;;5.28;0.20;;;16.50;57.70;;;;;;5072410;28;20082;-70
2022/05/29 19:41:24;;;;;;;0.60;0.25;;;16.40;58.10;;;;;;5054321;28;20400;-69
2022/05/29 19:43:51;;;;;;;0.20;0.10;;;16.30;58.00;;;;;;5071157;28;20489;-69
2022/05/29 19:46:19;;;;;;;0.90;0.20;;;16.40;58.30;;;;;;5072344;28;20036;-69
2022/05/29 19:48:46;;;;;;;0.50;0.20;;;16.30;58.10;;;;;;5072296;28;20047;-68
2022/05/29 19:51:14;;;;;;;1.05;0.20;;;16.30;58.20;;;;;;5071848;28;20083;-69
2022/05/29 19:53:40;;;;;;;0.28;0.10;;;16.30;58.60;;;;;;5072402;28;20028;-68
2022/05/29 19:56:10;;;;;;;1.20;0.20;;;16.30;58.50;;;;;;5071888;28;20060;-68
2022/05/29 19:58:37;;;;;;;0.50;0.20;;;16.30;57.60;;;;;;5071818;28;20036;-69
2022/05/29 20:01:03;;;;;;;1.58;0.20;;;16.30;57.30;;;;;;5072274;28;20032;-68
2022/05/29 20:03:29;;;;;;;0.30;0.10;;;16.30;57.60;;;;;;5072265;28;20484;-68
2022/05/29 20:06:00;;;;;;;0.20;0.10;;;16.30;57.50;;;;;;5072220;28;20382;-69
2022/05/29 20:08:25;;;;;;;2.47;0.17;;;16.20;57.40;;;;;;5072017;28;20041;-69
2022/05/29 20:10:51;;;;;;;0.63;0.10;;;16.20;57.40;;;;;;5071664;28;20039;-69
2022/05/29 20:13:17;;;;;;;0.17;0.10;;;16.20;57.50;;;;;;5071424;28;20029;-69
2022/05/29 20:15:42;;;;;;;1.80;0.20;;;16.10;57.80;;;;;;5071962;28;20029;-68
2022/05/29 20:18:08;;;;;;;0.63;0.10;;;16.10;57.30;;;;;;5071802;28;20078;-69
2022/05/29 20:20:34;;;;;;;0.85;0.10;;;16.10;58.00;;;;;;5071224;28;20149;-69
2022/05/29 20:22:59;;;;;;;0.77;0.17;;;16.00;58.00;;;;;;5071685;28;20056;-70
2022/05/29 20:25:25;;;;;;;1.02;0.10;;;16.00;57.90;;;;;;5072091;28;20043;-69
2022/05/29 20:27:51;;;;;;;1.08;0.20;;;16.00;58.60;;;;;;5071410;28;20400;-69
2022/05/29 20:30:17;;;;;;;0.10;0.10;;;16.00;58.50;;;;;;5071698;28;20481;-69
2022/05/29 20:32:42;;;;;;;0.55;0.10;;;16.00;58.70;;;;;;5073670;28;20036;-69
2022/05/29 20:35:08;;;;;;;0.20;0.10;;;15.90;58.30;;;;;;5075861;28;20044;-70
2022/05/29 20:37:35;;;;;;;0.05;0.03;;;16.00;58.80;;;;;;5075916;28;20102;-69
2022/05/29 20:40:03;;;;;;;0.60;0.20;;;15.90;58.80;;;;;;5075972;28;20399;-69
2022/05/29 20:42:29;;;;;;;0.00;0.00;;;15.90;58.90;;;;;;5075501;28;20035;-69
2022/05/29 20:44:55;;;;;;;0.52;0.20;;;15.90;59.30;;;;;;5075456;28;20041;-69
2022/05/29 20:47:23;;;;;;;0.35;0.10;;;15.90;59.40;;;;;;5075585;28;20472;-69
2022/05/29 20:49:50;;;;;;;0.75;0.20;;;15.90;59.10;;;;;;5075626;28;20473;-69
2022/05/29 20:52:18;;;;;;;1.17;0.20;;;15.90;59.30;;;;;;5075020;28;20517;-69
2022/05/29 20:54:44;;;;;;;2.63;0.20;;;15.90;59.20;;;;;;5075531;28;20039;-68
2022/05/29 20:57:10;;;;;;;0.20;0.20;;;15.80;59.30;;;;;;5075070;28;20063;-70
2022/05/29 20:59:36;;;;;;;0.32;0.20;;;15.80;59.00;;;;;;5074542;28;20056;-69
2022/05/29 21:02:05;;;;;;;0.20;0.17;;;15.80;59.30;;;;;;5075154;28;20032;-69
2022/05/29 21:04:33;;;;;;;0.20;0.20;;;15.80;59.20;;;;;;5075356;28;20040;-69
2022/05/29 21:06:59;;;;;;;0.22;0.10;;;15.70;59.10;;;;;;5074897;28;20032;-69
2022/05/29 21:09:25;;;;;;;0.10;0.10;;;15.70;59.10;;;;;;5075081;28;20041;-68
2022/05/29 21:11:51;;;;;;;0.20;0.10;;;15.80;58.60;;;;;;5074909;28;20453;-69
2022/05/29 21:14:17;;;;;;;0.10;0.10;;;15.70;58.80;;;;;;5074936;28;20493;-69
2022/05/29 21:16:43;;;;;;;0.10;0.10;;;15.60;59.00;;;;;;5075184;28;20430;-68
2022/05/29 21:19:15;;;;;;;0.47;0.17;;;15.60;59.10;;;;;;5074966;28;20807;-69
2022/05/29 21:21:45;;;;;;;1.35;0.20;;;15.60;59.60;;;;;;5074574;28;20029;-69
2022/05/29 21:24:12;;;;;;;1.02;0.20;;;15.70;59.50;;;;;;5075285;28;20621;-67
2022/05/29 21:26:42;;;;;;;1.35;0.30;;;15.60;59.40;;;;;;5075148;28;20076;-67
2022/05/29 21:29:07;;;;;;;0.82;0.30;;;15.60;59.40;;;;;;5075289;28;20040;-67
2022/05/29 21:31:34;;;;;;;0.10;0.10;;;15.60;59.50;;;;;;5075613;28;20043;-68
2022/05/29 21:34:02;;;;;;;1.90;0.13;;;15.60;59.70;;;;;;5075214;28;20496;-67
2022/05/29 21:36:29;;;;;;;10.50;0.30;;;15.60;59.70;;;;;;5072553;28;20107;-67
2022/05/29 21:39:08;;;;;;;0.05;0.05;;;15.50;59.80;;;;;;5072392;28;20035;-67
2022/05/29 21:41:34;;;;;;;0.98;0.20;;;15.50;59.60;;;;;;5074806;28;20392;-67
2022/05/29 21:43:59;;;;;;;0.88;0.20;;;15.50;59.60;;;;;;5074346;28;20041;-67
2022/05/29 21:46:25;;;;;;;0.15;0.10;;;15.40;59.70;;;;;;5075160;28;20489;-67
2022/05/29 21:48:51;;;;;;;0.30;0.05;;;15.50;59.70;;;;;;5075282;28;20036;-67
2022/05/29 21:51:20;;;;;;;0.10;0.10;;;15.40;59.70;;;;;;5074958;28;20039;-67
2022/05/29 21:53:46;;;;;;;2.55;0.17;;;15.50;59.40;;;;;;5075138;28;20048;-68
2022/05/29 21:56:15;;;;;;;0.10;0.05;;;15.40;59.80;;;;;;5074761;28;20488;-67
2022/05/29 21:58:43;;;;;;;0.63;0.50;;;15.40;59.80;;;;;;5074702;28;20468;-67
2022/05/29 22:01:10;;;;;;;0.15;0.10;;;15.40;59.30;;;;;;5074746;28;20099;-67
2022/05/29 22:03:38;;;;;;;0.63;0.20;;;15.40;59.60;;;;;;5074712;28;20509;-67
2022/05/29 22:06:09;;;;;;;0.17;0.10;;;15.40;59.50;;;;;;5074497;28;20036;-67
2022/05/29 22:08:35;;;;;;;0.50;0.10;;;15.40;59.40;;;;;;5074846;28;20037;-68
2022/05/29 22:11:02;;;;;;;0.95;0.20;;;15.40;59.80;;;;;;5074824;28;20028;-67
2022/05/29 22:13:28;;;;;;;1.13;0.10;;;15.40;59.60;;;;;;5074602;28;20036;-67
2022/05/29 22:16:08;;;;;;;0.30;0.10;;;15.40;59.40;;;;;;5074850;28;20025;-68
2022/05/29 22:18:34;;;;;;;0.60;0.20;;;15.30;59.20;;;;;;5074699;28;20044;-68
2022/05/29 22:21:10;;;;;;;0.73;0.10;;;15.30;59.50;;;;;;5074225;28;20044;-67